Time;durP1;ratioP1;P1;durP2;ratioP2;P2;SDS_P1;SDS_P2;PMS_P1;PMS_P2;Temp;Humidity;BMP_temperature;BMP_pressure;BME280_temperature;BME280_humidity;BME280_pressure;Samples;Min_cycle;Max_cycle;Signal;HPM_P1;HPM_P2
2021/01/08 00:00:40;;;;;;;24.27;13.57;;;1.10;99.90;;;;;;5091008;28;20123;-65
2021/01/08 00:03:06;;;;;;;27.35;13.77;;;1.10;99.90;;;;;;5090127;28;20402;-65
2021/01/08 00:05:32;;;;;;;23.48;13.23;;;1.00;99.90;;;;;;5091171;28;20059;-64
2021/01/08 00:07:59;;;;;;;25.48;13.48;;;1.00;99.90;;;;;;5090170;28;20658;-66
2021/01/08 00:10:26;;;;;;;26.13;13.85;;;1.00;99.90;;;;;;5090466;28;20056;-65
2021/01/08 00:12:52;;;;;;;27.73;14.95;;;1.00;99.90;;;;;;5089956;28;20044;-64
2021/01/08 00:15:19;;;;;;;28.75;14.50;;;1.00;99.90;;;;;;5090663;28;20055;-66
2021/01/08 00:17:45;;;;;;;25.60;14.55;;;1.00;99.90;;;;;;5090515;28;20170;-66
2021/01/08 00:20:13;;;;;;;26.10;14.25;;;1.00;99.90;;;;;;5089304;28;20055;-67
2021/01/08 00:22:39;;;;;;;24.27;14.15;;;1.00;99.90;;;;;;5090437;28;20055;-66
2021/01/08 00:25:06;;;;;;;23.90;13.32;;;1.00;99.90;;;;;;5089115;28;20052;-67
2021/01/08 00:27:33;;;;;;;25.55;14.55;;;1.00;99.90;;;;;;5090442;28;20044;-66
2021/01/08 00:29:59;;;;;;;26.52;13.90;;;1.00;99.90;;;;;;5090436;28;20046;-66
2021/01/08 00:32:26;;;;;;;22.08;13.23;;;1.00;99.90;;;;;;5090049;28;20044;-66
2021/01/08 00:34:52;;;;;;;25.15;13.95;;;1.00;99.90;;;;;;5090260;28;20187;-66
2021/01/08 00:37:22;;;;;;;27.80;14.90;;;1.00;99.90;;;;;;5091755;28;20056;-66
2021/01/08 00:39:48;;;;;;;23.88;14.07;;;0.90;99.90;;;;;;5094566;28;20391;-67
2021/01/08 00:42:14;;;;;;;27.67;14.45;;;0.90;99.90;;;;;;5081595;28;20298;-66
2021/01/08 00:44:42;;;;;;;25.60;14.30;;;0.90;99.90;;;;;;5094093;28;20512;-66
2021/01/08 00:47:10;;;;;;;29.60;15.25;;;0.90;99.90;;;;;;5093792;28;20525;-66
2021/01/08 00:49:36;;;;;;;27.35;14.88;;;0.80;99.90;;;;;;5082257;28;20040;-66
2021/01/08 00:52:04;;;;;;;28.95;15.77;;;0.90;99.90;;;;;;5081167;28;20052;-66
2021/01/08 00:54:30;;;;;;;27.05;15.20;;;0.90;99.90;;;;;;5074859;28;20067;-66
2021/01/08 00:56:57;;;;;;;24.75;13.95;;;0.90;99.90;;;;;;5093588;28;20163;-66
2021/01/08 00:59:23;;;;;;;25.42;14.73;;;0.90;99.90;;;;;;5093886;28;20047;-66
2021/01/08 01:01:49;;;;;;;28.42;15.55;;;0.90;99.90;;;;;;5093790;28;20044;-65
2021/01/08 01:04:16;;;;;;;26.25;14.93;;;0.90;99.90;;;;;;5091446;28;20054;-66
2021/01/08 01:06:45;;;;;;;30.23;15.63;;;0.80;99.90;;;;;;5092496;28;20046;-65
2021/01/08 01:09:12;;;;;;;27.75;14.88;;;0.80;99.90;;;;;;5093128;28;20513;-65
2021/01/08 01:11:38;;;;;;;26.02;15.35;;;0.80;99.90;;;;;;5092854;28;20051;-66
2021/01/08 01:14:06;;;;;;;29.88;16.23;;;0.80;99.90;;;;;;5075576;28;20094;-66
2021/01/08 01:16:33;;;;;;;27.83;16.05;;;0.80;99.90;;;;;;5093037;28;20040;-66
2021/01/08 01:18:59;;;;;;;24.00;14.45;;;0.80;99.90;;;;;;5093787;28;20070;-65
2021/01/08 01:21:27;;;;;;;29.95;15.27;;;0.70;99.90;;;;;;5091908;28;20046;-65
2021/01/08 01:23:56;;;;;;;26.80;14.55;;;0.70;99.90;;;;;;5093705;28;20478;-64
2021/01/08 01:26:24;;;;;;;27.40;15.00;;;0.70;99.90;;;;;;5093007;28;20075;-64
2021/01/08 01:28:50;;;;;;;30.33;14.57;;;0.70;99.90;;;;;;5093632;28;20093;-66
2021/01/08 01:31:17;;;;;;;30.23;14.93;;;0.80;99.90;;;;;;5092871;28;20051;-65
2021/01/08 01:33:44;;;;;;;27.23;15.07;;;0.80;99.90;;;;;;5093154;28;20417;-65
2021/01/08 01:36:10;;;;;;;25.55;13.68;;;0.80;99.90;;;;;;5093313;28;20076;-66
2021/01/08 01:38:38;;;;;;;27.10;15.18;;;0.80;99.90;;;;;;5092896;28;20474;-65
2021/01/08 01:41:05;;;;;;;27.60;14.77;;;0.70;99.90;;;;;;5083603;28;20060;-65
2021/01/08 01:43:33;;;;;;;28.13;15.77;;;0.80;99.90;;;;;;5089106;28;20048;-66
2021/01/08 01:46:02;;;;;;;27.90;14.80;;;0.70;99.90;;;;;;5093217;28;20056;-67
2021/01/08 01:48:29;;;;;;;28.65;15.15;;;0.70;99.90;;;;;;5092709;28;20509;-64
2021/01/08 01:50:56;;;;;;;28.25;15.30;;;0.80;99.90;;;;;;5092677;28;20477;-67
2021/01/08 01:53:23;;;;;;;25.45;14.40;;;0.80;99.90;;;;;;5092815;28;20123;-66
2021/01/08 01:55:50;;;;;;;28.00;14.88;;;0.80;99.90;;;;;;5091858;28;20047;-66
2021/01/08 01:58:18;;;;;;;26.52;14.80;;;0.70;99.90;;;;;;5092843;28;20059;-66
2021/01/08 02:00:44;;;;;;;26.92;14.95;;;0.80;99.90;;;;;;5092108;28;20081;-65
2021/01/08 02:03:29;;;;;;;27.08;14.70;;;0.80;99.90;;;;;;5074419;28;20059;-66
2021/01/08 02:06:01;;;;;;;26.17;14.32;;;0.80;99.90;;;;;;5066359;28;20131;-66
2021/01/08 02:08:28;;;;;;;29.23;16.38;;;0.80;99.90;;;;;;5092841;28;20056;-65
2021/01/08 02:11:08;;;;;;;28.17;15.55;;;0.80;99.90;;;;;;5092161;28;20079;-66
2021/01/08 02:13:50;;;;;;;26.35;15.52;;;0.80;99.90;;;;;;5082281;28;20044;-66
2021/01/08 02:16:18;;;;;;;29.20;15.07;;;0.80;99.90;;;;;;5090250;28;20040;-66
2021/01/08 02:18:47;;;;;;;29.83;16.02;;;0.80;99.90;;;;;;5082313;28;20047;-66
2021/01/08 02:21:19;;;;;;;29.48;16.17;;;0.80;99.90;;;;;;5091205;28;20048;-65
2021/01/08 02:24:08;;;;;;;29.10;15.73;;;0.90;99.90;;;;;;5092803;28;20052;-65
2021/01/08 02:26:36;;;;;;;26.83;15.43;;;0.80;99.90;;;;;;5092063;28;20043;-66
2021/01/08 02:29:02;;;;;;;26.67;14.95;;;0.90;99.90;;;;;;5082627;28;20624;-65
2021/01/08 02:31:29;;;;;;;29.88;16.98;;;0.80;99.90;;;;;;5089025;28;20134;-65
2021/01/08 02:33:57;;;;;;;31.65;16.73;;;0.80;99.90;;;;;;5092445;28;20047;-67
2021/01/08 02:36:26;;;;;;;28.90;15.65;;;0.80;99.90;;;;;;5092097;28;20072;-66
2021/01/08 02:38:53;;;;;;;26.52;15.77;;;0.80;99.90;;;;;;5079507;28;20039;-66
2021/01/08 02:41:21;;;;;;;29.67;15.93;;;0.80;99.90;;;;;;5087855;28;20520;-65
2021/01/08 02:43:49;;;;;;;26.15;15.13;;;0.80;99.90;;;;;;5072676;28;20052;-65
2021/01/08 02:46:16;;;;;;;25.13;14.95;;;0.80;99.90;;;;;;5091436;28;20056;-65
2021/01/08 02:48:43;;;;;;;24.52;13.43;;;0.80;99.90;;;;;;5091470;28;20087;-65
2021/01/08 02:51:10;;;;;;;27.48;15.20;;;0.90;99.90;;;;;;5091583;28;20067;-64
2021/01/08 02:53:38;;;;;;;26.83;13.32;;;0.80;99.90;;;;;;5085906;28;20063;-65
2021/01/08 02:56:07;;;;;;;25.42;13.07;;;0.80;99.90;;;;;;5072059;28;20051;-65
2021/01/08 02:58:35;;;;;;;21.45;12.65;;;0.80;99.90;;;;;;5090717;28;20071;-64
2021/01/08 03:01:03;;;;;;;24.67;13.45;;;0.90;99.90;;;;;;5090673;28;20051;-64
2021/01/08 03:03:30;;;;;;;22.80;12.65;;;0.80;99.90;;;;;;5091459;28;20486;-65
2021/01/08 03:05:59;;;;;;;22.60;12.60;;;0.80;99.90;;;;;;5091146;28;20048;-64
2021/01/08 03:08:26;;;;;;;19.80;12.00;;;0.80;99.90;;;;;;5092138;28;20060;-65
2021/01/08 03:10:53;;;;;;;18.77;11.18;;;0.80;99.90;;;;;;5091033;28;20119;-64
2021/01/08 03:13:20;;;;;;;18.30;10.82;;;0.80;99.90;;;;;;5071448;28;20047;-64
2021/01/08 03:15:46;;;;;;;18.50;10.38;;;0.90;99.90;;;;;;5091200;28;20048;-64
2021/01/08 03:18:13;;;;;;;17.38;10.27;;;0.80;99.90;;;;;;5090396;28;20123;-65
2021/01/08 03:20:39;;;;;;;17.17;10.43;;;0.80;99.90;;;;;;5090556;28;20776;-65
2021/01/08 03:23:08;;;;;;;16.75;10.02;;;0.80;99.90;;;;;;5090582;28;20479;-65
2021/01/08 03:25:34;;;;;;;15.35;9.07;;;0.80;99.90;;;;;;5091311;28;20147;-65
2021/01/08 03:28:01;;;;;;;17.42;9.68;;;0.80;99.90;;;;;;5091112;28;20059;-65
2021/01/08 03:30:27;;;;;;;15.60;8.48;;;0.80;99.90;;;;;;5090519;28;20051;-65
2021/01/08 03:32:54;;;;;;;17.02;9.60;;;0.80;99.90;;;;;;5090105;28;20131;-64
2021/01/08 03:35:20;;;;;;;14.65;8.18;;;0.80;99.90;;;;;;5086150;28;20049;-65
2021/01/08 03:37:47;;;;;;;14.80;8.48;;;0.70;99.90;;;;;;5083289;28;20044;-65
2021/01/08 03:40:13;;;;;;;14.68;8.15;;;0.70;99.90;;;;;;5088538;28;20056;-64
2021/01/08 03:42:40;;;;;;;14.85;8.40;;;0.70;99.90;;;;;;5089781;28;20048;-65
2021/01/08 03:45:07;;;;;;;15.02;7.45;;;0.70;99.90;;;;;;5089709;28;20383;-64
2021/01/08 03:47:36;;;;;;;14.25;7.80;;;0.70;99.90;;;;;;5090267;28;20054;-63
2021/01/08 03:50:03;;;;;;;13.05;7.93;;;0.60;99.90;;;;;;5089846;28;20044;-65
2021/01/08 03:52:29;;;;;;;13.85;8.00;;;0.60;99.90;;;;;;5090200;28;20123;-64
2021/01/08 03:54:56;;;;;;;13.75;8.07;;;0.60;99.90;;;;;;5091008;28;20048;-65
2021/01/08 03:57:22;;;;;;;13.88;8.23;;;0.60;99.90;;;;;;5090292;28;20052;-64
2021/01/08 03:59:49;;;;;;;13.80;8.13;;;0.60;99.90;;;;;;5090820;28;20047;-64
2021/01/08 04:02:15;;;;;;;15.20;8.85;;;0.60;99.90;;;;;;5091117;28;20052;-65
2021/01/08 04:04:42;;;;;;;15.95;9.23;;;0.70;99.90;;;;;;5090878;28;20044;-65
2021/01/08 04:07:08;;;;;;;16.25;9.00;;;0.60;99.90;;;;;;5083995;28;20044;-63
2021/01/08 04:09:35;;;;;;;15.55;9.45;;;0.60;99.90;;;;;;5089291;28;20044;-65
2021/01/08 04:12:02;;;;;;;14.82;8.80;;;0.60;99.90;;;;;;5091590;28;20036;-65
2021/01/08 04:14:28;;;;;;;17.38;9.52;;;0.60;99.90;;;;;;5093217;28;20054;-65
2021/01/08 04:16:54;;;;;;;20.50;10.40;;;0.50;99.90;;;;;;5093520;28;20412;-65
2021/01/08 04:19:22;;;;;;;17.85;9.35;;;0.50;99.90;;;;;;5093756;28;20465;-65
2021/01/08 04:21:50;;;;;;;17.75;9.73;;;0.50;99.90;;;;;;5093656;28;20492;-65
2021/01/08 04:24:17;;;;;;;16.05;9.23;;;0.50;99.90;;;;;;5094257;28;20052;-65
2021/01/08 04:26:43;;;;;;;16.13;9.50;;;0.50;99.90;;;;;;5094516;28;20048;-65
2021/01/08 04:29:09;;;;;;;17.63;9.38;;;0.50;99.90;;;;;;5094770;28;20063;-65
2021/01/08 04:31:36;;;;;;;17.13;8.80;;;0.60;99.90;;;;;;5094058;28;20048;-65
2021/01/08 04:34:03;;;;;;;18.48;9.57;;;0.60;99.90;;;;;;5093955;28;20084;-66
2021/01/08 04:36:30;;;;;;;17.65;9.20;;;0.60;99.90;;;;;;5094031;28;20123;-66
2021/01/08 04:38:56;;;;;;;15.50;8.95;;;0.50;99.90;;;;;;5094133;28;20051;-66
2021/01/08 04:41:23;;;;;;;17.25;9.73;;;0.50;99.90;;;;;;5094216;28;20130;-65
2021/01/08 04:43:50;;;;;;;17.08;9.75;;;0.50;99.90;;;;;;5093795;28;20478;-66
2021/01/08 04:46:23;;;;;;;16.35;9.68;;;0.50;99.90;;;;;;5093478;28;20444;-65
2021/01/08 04:48:54;;;;;;;15.43;9.30;;;0.40;99.90;;;;;;5093400;28;20155;-67
2021/01/08 04:51:23;;;;;;;15.48;8.70;;;0.40;99.90;;;;;;5092749;28;20052;-66
2021/01/08 04:53:51;;;;;;;19.33;9.38;;;0.40;99.90;;;;;;5094358;28;20482;-66
2021/01/08 04:56:21;;;;;;;15.35;8.57;;;0.50;99.90;;;;;;5108103;27;20040;-65
2021/01/08 04:58:47;;;;;;;15.18;9.02;;;0.50;99.90;;;;;;5094027;28;20042;-66
2021/01/08 05:01:15;;;;;;;15.50;8.73;;;0.50;99.90;;;;;;5092847;28;20052;-66
2021/01/08 05:03:42;;;;;;;13.38;7.47;;;0.50;99.90;;;;;;5094075;28;20470;-63
2021/01/08 05:06:08;;;;;;;13.65;7.82;;;0.50;99.90;;;;;;5094155;28;20048;-64
2021/01/08 05:08:35;;;;;;;12.65;7.95;;;0.50;99.90;;;;;;5093997;28;20486;-64
2021/01/08 05:11:24;;;;;;;14.30;7.78;;;0.50;99.90;;;;;;5092680;28;20059;-64
2021/01/08 05:13:56;;;;;;;15.20;8.02;;;0.50;99.90;;;;;;5090214;28;20102;-64
2021/01/08 05:16:25;;;;;;;11.68;7.22;;;0.50;99.90;;;;;;5092653;28;20047;-64
2021/01/08 05:18:53;;;;;;;12.68;7.70;;;0.50;99.90;;;;;;5092413;28;20048;-64
2021/01/08 05:21:19;;;;;;;12.45;7.68;;;0.50;99.90;;;;;;5092661;28;20501;-65
2021/01/08 05:23:49;;;;;;;13.70;8.18;;;0.50;99.90;;;;;;5092942;28;20079;-64
2021/01/08 05:26:16;;;;;;;16.10;8.40;;;0.40;99.90;;;;;;5093223;28;20052;-64
2021/01/08 05:28:54;;;;;;;14.13;8.02;;;0.50;99.90;;;;;;5093686;28;20044;-64
2021/01/08 05:31:23;;;;;;;12.70;7.65;;;0.50;99.90;;;;;;5091096;28;20055;-64
2021/01/08 05:33:50;;;;;;;11.90;7.47;;;0.50;99.90;;;;;;5093761;28;20051;-64
2021/01/08 05:36:18;;;;;;;14.23;8.23;;;0.50;99.90;;;;;;5091566;28;20131;-64
2021/01/08 05:39:05;;;;;;;15.23;8.25;;;0.60;99.90;;;;;;5089735;28;20493;-64
2021/01/08 05:41:32;;;;;;;13.80;8.05;;;0.50;99.90;;;;;;5091611;28;20052;-63
2021/01/08 05:44:00;;;;;;;14.45;8.07;;;0.50;99.90;;;;;;5086518;28;20051;-65
2021/01/08 05:46:29;;;;;;;13.65;8.40;;;0.50;99.90;;;;;;5092089;28;20052;-65
2021/01/08 05:49:06;;;;;;;15.25;8.48;;;0.60;99.90;;;;;;5091477;28;20139;-64
2021/01/08 05:51:36;;;;;;;16.40;8.30;;;0.60;99.90;;;;;;5081137;28;20068;-64
2021/01/08 05:54:03;;;;;;;16.30;8.75;;;0.60;99.90;;;;;;5092192;28;20081;-64
2021/01/08 05:56:37;;;;;;;14.45;8.15;;;0.60;99.90;;;;;;5090367;28;20647;-64
2021/01/08 05:59:05;;;;;;;12.88;7.78;;;0.60;99.90;;;;;;5090857;28;20132;-64
2021/01/08 06:01:33;;;;;;;14.02;7.78;;;0.50;99.90;;;;;;5082510;28;20443;-64
2021/01/08 06:04:03;;;;;;;13.90;8.02;;;0.60;99.90;;;;;;5081086;28;20052;-65
2021/01/08 06:06:43;;;;;;;14.10;8.45;;;0.60;99.90;;;;;;5072771;28;20479;-65
2021/01/08 06:09:14;;;;;;;14.60;8.27;;;0.60;99.90;;;;;;5088624;28;20120;-64
2021/01/08 06:11:45;;;;;;;13.23;7.22;;;0.50;99.90;;;;;;5091132;28;20470;-64
2021/01/08 06:14:13;;;;;;;15.52;8.77;;;0.60;99.90;;;;;;5091655;28;20494;-64
2021/01/08 06:16:44;;;;;;;17.00;8.07;;;0.60;99.90;;;;;;5091214;28;20051;-67
2021/01/08 06:19:13;;;;;;;15.27;9.27;;;0.60;99.90;;;;;;5091923;28;20044;-66
2021/01/08 06:21:42;;;;;;;16.80;8.38;;;0.60;99.90;;;;;;5090465;28;20470;-65
2021/01/08 06:24:28;;;;;;;16.13;8.82;;;0.50;99.90;;;;;;5091605;28;20131;-66
2021/01/08 06:26:55;;;;;;;15.52;8.68;;;0.60;99.90;;;;;;5084167;28;20048;-66
2021/01/08 06:29:24;;;;;;;16.92;9.38;;;0.60;99.90;;;;;;5077331;28;20047;-65
2021/01/08 06:31:53;;;;;;;17.08;8.90;;;0.60;99.90;;;;;;5078232;28;20534;-64
2021/01/08 06:34:27;;;;;;;17.67;10.27;;;0.60;99.90;;;;;;5074671;28;20132;-64
2021/01/08 06:37:06;;;;;;;14.38;8.35;;;0.60;99.90;;;;;;5033950;28;1250389;-64
2021/01/08 06:39:34;;;;;;;17.23;9.35;;;0.60;99.90;;;;;;5079694;28;20118;-63
2021/01/08 06:42:01;;;;;;;16.13;8.55;;;0.50;99.90;;;;;;5089631;28;20048;-63
2021/01/08 06:44:31;;;;;;;14.07;8.07;;;0.50;99.90;;;;;;5074550;28;20452;-63
2021/01/08 06:47:00;;;;;;;17.60;8.38;;;0.50;99.90;;;;;;5091577;28;20059;-64
2021/01/08 06:49:31;;;;;;;16.83;9.82;;;0.50;99.90;;;;;;5091856;28;20051;-65
2021/01/08 06:52:01;;;;;;;13.68;7.90;;;0.50;99.90;;;;;;5091577;28;20051;-65
2021/01/08 06:54:28;;;;;;;14.77;8.98;;;0.50;99.90;;;;;;5092098;28;20516;-65
2021/01/08 06:57:00;;;;;;;18.55;9.80;;;0.50;99.90;;;;;;5091700;28;20055;-66
2021/01/08 06:59:32;;;;;;;15.13;9.68;;;0.50;99.90;;;;;;5090792;28;20127;-65
2021/01/08 07:02:20;;;;;;;18.30;9.88;;;0.50;99.90;;;;;;5091560;28;20409;-66
2021/01/08 07:04:48;;;;;;;15.88;9.25;;;0.40;99.90;;;;;;5090707;28;20055;-67
2021/01/08 07:07:21;;;;;;;16.38;9.10;;;0.50;99.90;;;;;;5091129;28;20059;-67
2021/01/08 07:09:49;;;;;;;19.35;9.68;;;0.40;99.90;;;;;;5078044;28;20040;-66
2021/01/08 07:12:16;;;;;;;18.40;9.35;;;0.40;99.90;;;;;;5091141;28;20052;-66
2021/01/08 07:14:45;;;;;;;16.67;9.50;;;0.40;99.90;;;;;;5090046;28;20051;-68
2021/01/08 07:17:15;;;;;;;17.08;8.52;;;0.50;99.90;;;;;;5091276;28;20059;-66
2021/01/08 07:19:43;;;;;;;16.48;9.07;;;0.50;99.90;;;;;;5090884;28;20492;-68
2021/01/08 07:22:19;;;;;;;20.55;9.30;;;0.50;99.90;;;;;;5090709;28;20515;-67
2021/01/08 07:24:49;;;;;;;15.75;9.18;;;0.60;99.90;;;;;;5088982;28;20043;-67
2021/01/08 07:27:16;;;;;;;18.00;9.30;;;0.60;99.90;;;;;;5082827;28;20570;-67
2021/01/08 07:29:52;;;;;;;20.17;11.65;;;0.60;99.90;;;;;;5091194;28;20055;-65
2021/01/08 07:32:41;;;;;;;16.77;9.63;;;0.70;99.90;;;;;;5089558;28;20048;-66
2021/01/08 07:35:23;;;;;;;17.08;9.57;;;0.80;99.90;;;;;;5089747;28;20051;-66
2021/01/08 07:37:56;;;;;;;17.45;9.40;;;0.70;99.90;;;;;;5072517;28;20051;-66
2021/01/08 07:40:24;;;;;;;19.65;10.30;;;0.80;99.90;;;;;;5088189;28;20062;-67
2021/01/08 07:43:09;;;;;;;17.92;10.05;;;0.70;99.90;;;;;;5079820;28;20486;-67
2021/01/08 07:45:52;;;;;;;17.35;9.73;;;0.80;99.90;;;;;;5090278;28;20043;-66
2021/01/08 07:48:31;;;;;;;19.38;10.38;;;0.80;99.90;;;;;;5076515;28;20080;-68
2021/01/08 07:51:08;;;;;;;15.35;9.02;;;0.80;99.90;;;;;;5080039;28;20044;-65
2021/01/08 07:53:40;;;;;;;17.35;10.18;;;0.90;99.90;;;;;;5075507;28;20045;-66
2021/01/08 07:56:09;;;;;;;17.52;9.80;;;0.90;99.90;;;;;;5080808;28;20052;-66
2021/01/08 07:58:36;;;;;;;15.38;9.35;;;0.90;99.90;;;;;;5089869;28;20040;-66
2021/01/08 08:01:05;;;;;;;20.40;10.38;;;1.00;99.90;;;;;;5090266;28;20048;-66
2021/01/08 08:03:32;;;;;;;19.75;10.13;;;1.00;99.90;;;;;;5089580;28;20083;-66
2021/01/08 08:06:06;;;;;;;16.58;9.38;;;1.00;99.90;;;;;;5089297;28;20410;-68
2021/01/08 08:08:38;;;;;;;16.08;9.50;;;1.10;99.90;;;;;;5089300;28;20501;-67
2021/01/08 08:11:14;;;;;;;17.02;9.43;;;1.10;99.90;;;;;;5089925;28;20048;-66
2021/01/08 08:13:40;;;;;;;17.98;9.93;;;1.20;99.90;;;;;;5086956;28;20127;-65
2021/01/08 08:16:08;;;;;;;17.83;10.10;;;1.20;99.90;;;;;;5072988;28;20052;-66
2021/01/08 08:18:52;;;;;;;15.63;8.90;;;1.10;99.90;;;;;;5086883;28;21461;-66
2021/01/08 08:21:21;;;;;;;18.23;9.85;;;1.20;99.90;;;;;;5089326;28;20048;-65
2021/01/08 08:23:51;;;;;;;15.48;9.23;;;1.20;99.90;;;;;;5090607;28;20489;-66
2021/01/08 08:26:19;;;;;;;19.13;10.70;;;1.10;99.90;;;;;;5090789;28;20044;-65
2021/01/08 08:29:00;;;;;;;18.42;10.13;;;1.10;99.90;;;;;;5072840;28;20044;-66
2021/01/08 08:31:28;;;;;;;17.65;9.98;;;1.10;99.90;;;;;;5072106;28;20140;-66
2021/01/08 08:33:56;;;;;;;16.88;10.32;;;1.20;99.90;;;;;;5091162;28;20442;-65
2021/01/08 08:36:27;;;;;;;19.73;10.35;;;1.30;99.90;;;;;;5089175;28;20048;-67
2021/01/08 08:39:01;;;;;;;17.25;9.27;;;1.20;99.90;;;;;;5090230;28;20044;-65
2021/01/08 08:41:31;;;;;;;18.15;9.98;;;1.30;99.90;;;;;;5090035;28;20138;-67
2021/01/08 08:44:05;;;;;;;19.65;9.98;;;1.30;99.90;;;;;;5071892;28;20127;-67
2021/01/08 08:46:52;;;;;;;19.05;9.98;;;1.40;99.90;;;;;;5090994;28;20040;-66
2021/01/08 08:49:35;;;;;;;15.10;8.60;;;1.50;99.90;;;;;;5081321;28;20561;-67
2021/01/08 08:52:05;;;;;;;16.95;9.75;;;1.60;99.90;;;;;;5085103;28;20050;-66
2021/01/08 08:54:38;;;;;;;16.65;10.60;;;1.70;99.90;;;;;;5082231;28;20052;-65
2021/01/08 08:57:05;;;;;;;17.42;8.98;;;1.70;99.90;;;;;;5090640;28;20052;-66
2021/01/08 08:59:42;;;;;;;16.38;9.82;;;1.60;99.90;;;;;;5073947;28;20642;-65
2021/01/08 09:02:10;;;;;;;17.38;9.82;;;1.70;99.90;;;;;;5092065;28;20051;-65
2021/01/08 09:05:00;;;;;;;17.77;9.90;;;1.60;99.90;;;;;;5091889;28;20489;-66
2021/01/08 09:07:54;;;;;;;16.23;8.80;;;1.60;99.90;;;;;;5092740;28;20048;-66
2021/01/08 09:10:33;;;;;;;17.00;9.27;;;1.60;99.90;;;;;;5083927;28;20040;-67
2021/01/08 09:13:11;;;;;;;16.08;9.00;;;1.70;99.90;;;;;;5093082;28;20044;-64
2021/01/08 09:16:07;;;;;;;18.98;9.93;;;1.70;99.90;;;;;;5092995;28;20161;-66
2021/01/08 09:18:51;;;;;;;15.32;9.02;;;1.70;99.90;;;;;;5086439;28;20052;-66
2021/01/08 09:21:26;;;;;;;16.52;9.70;;;1.70;99.90;;;;;;5091960;28;20048;-65
2021/01/08 09:23:58;;;;;;;14.32;8.75;;;1.70;99.90;;;;;;5093036;28;20465;-66
2021/01/08 09:26:25;;;;;;;17.00;9.33;;;1.70;99.90;;;;;;5093073;28;20502;-66
2021/01/08 09:28:53;;;;;;;16.67;9.43;;;1.70;99.90;;;;;;5093291;28;20498;-66
2021/01/08 09:31:20;;;;;;;15.25;8.85;;;1.70;99.90;;;;;;5092829;28;20059;-65
2021/01/08 09:33:57;;;;;;;18.50;9.45;;;1.60;99.90;;;;;;5091155;28;20040;-65
2021/01/08 09:36:35;;;;;;;18.85;9.95;;;1.60;99.90;;;;;;5091900;28;20040;-65
2021/01/08 09:39:07;;;;;;;16.63;9.57;;;1.70;99.90;;;;;;5080746;28;20123;-66
2021/01/08 09:41:36;;;;;;;16.02;9.55;;;1.70;99.90;;;;;;5092487;28;20055;-64
2021/01/08 09:44:05;;;;;;;17.48;9.82;;;1.80;99.90;;;;;;5088878;28;20056;-66
2021/01/08 09:46:49;;;;;;;16.10;8.95;;;1.80;99.90;;;;;;5093115;28;20052;-67
2021/01/08 09:49:15;;;;;;;16.13;9.15;;;1.90;99.90;;;;;;5091952;28;20052;-67
2021/01/08 09:51:42;;;;;;;15.48;8.55;;;1.90;99.90;;;;;;5092377;28;20048;-65
2021/01/08 09:54:10;;;;;;;15.13;8.73;;;1.90;99.90;;;;;;5092022;28;20051;-66
2021/01/08 09:56:36;;;;;;;16.08;8.65;;;1.90;99.90;;;;;;5092562;28;20047;-66
2021/01/08 09:59:14;;;;;;;14.25;8.30;;;2.00;99.90;;;;;;5089860;28;20076;-66
2021/01/08 10:02:04;;;;;;;14.35;8.55;;;2.20;99.90;;;;;;5090953;28;20138;-65
2021/01/08 10:04:33;;;;;;;13.80;8.25;;;2.30;99.90;;;;;;5090499;28;20426;-67
2021/01/08 10:07:04;;;;;;;15.02;8.05;;;2.30;99.90;;;;;;5092485;28;20055;-67
2021/01/08 10:09:51;;;;;;;14.30;8.63;;;2.50;99.90;;;;;;5089652;28;20123;-66
2021/01/08 10:12:19;;;;;;;14.45;8.15;;;2.40;99.90;;;;;;5091999;28;20439;-67
2021/01/08 10:14:46;;;;;;;11.55;7.55;;;2.40;99.90;;;;;;5077751;28;20048;-67
2021/01/08 10:17:15;;;;;;;15.77;8.40;;;2.30;99.90;;;;;;5091881;28;20051;-65
2021/01/08 10:19:44;;;;;;;13.35;8.48;;;2.40;99.90;;;;;;5089926;28;20551;-66
2021/01/08 10:22:10;;;;;;;13.23;7.93;;;2.40;99.90;;;;;;5090473;28;20198;-64
2021/01/08 10:24:37;;;;;;;12.32;7.32;;;2.40;99.90;;;;;;5091438;28;20485;-65
2021/01/08 10:27:04;;;;;;;12.43;7.40;;;2.40;99.90;;;;;;5091888;28;20054;-65
2021/01/08 10:29:31;;;;;;;13.38;8.32;;;2.20;99.90;;;;;;5091912;28;20088;-64
2021/01/08 10:32:03;;;;;;;14.85;7.95;;;2.30;99.90;;;;;;5079697;28;20047;-65
2021/01/08 10:34:36;;;;;;;14.75;7.90;;;2.20;99.90;;;;;;5090677;28;20545;-65
2021/01/08 10:37:04;;;;;;;13.40;8.38;;;2.20;99.90;;;;;;5082982;28;20048;-66
2021/01/08 10:39:30;;;;;;;16.92;8.73;;;2.10;99.90;;;;;;5090732;28;20044;-65
2021/01/08 10:41:57;;;;;;;13.20;8.13;;;2.00;99.90;;;;;;5092033;28;20441;-65
2021/01/08 10:44:40;;;;;;;12.70;7.85;;;2.00;99.90;;;;;;5067657;28;20052;-67
2021/01/08 10:47:07;;;;;;;12.95;8.25;;;2.10;99.90;;;;;;5090450;28;20071;-66
2021/01/08 10:49:43;;;;;;;13.85;8.45;;;2.20;99.90;;;;;;5072522;28;20405;-65
2021/01/08 10:52:09;;;;;;;11.98;7.68;;;2.30;99.90;;;;;;5091045;28;20048;-66
2021/01/08 10:54:36;;;;;;;15.35;8.40;;;2.30;99.90;;;;;;5088911;28;20047;-65
2021/01/08 10:57:03;;;;;;;13.77;7.90;;;2.30;99.90;;;;;;5091703;28;20127;-66
2021/01/08 10:59:29;;;;;;;14.13;8.20;;;2.30;99.90;;;;;;5090893;28;20078;-65
2021/01/08 11:01:56;;;;;;;13.45;8.18;;;2.20;99.90;;;;;;5091647;28;20474;-66
2021/01/08 11:04:36;;;;;;;11.20;7.47;;;2.20;99.90;;;;;;5090475;28;20399;-66
2021/01/08 11:07:03;;;;;;;12.98;8.30;;;2.10;99.90;;;;;;5089171;28;20056;-66
2021/01/08 11:09:29;;;;;;;14.52;7.88;;;2.10;99.90;;;;;;5090508;28;20054;-65
2021/01/08 11:11:55;;;;;;;13.05;7.60;;;2.10;99.90;;;;;;5073018;28;20032;-66
2021/01/08 11:14:22;;;;;;;11.75;7.43;;;2.00;99.90;;;;;;5081026;28;20056;-66
2021/01/08 11:16:48;;;;;;;12.02;7.15;;;2.10;99.90;;;;;;5091700;28;20490;-66
2021/01/08 11:19:15;;;;;;;10.85;6.85;;;2.10;99.90;;;;;;5090183;28;20047;-65
2021/01/08 11:21:41;;;;;;;9.77;5.93;;;2.10;99.90;;;;;;5089455;28;20052;-65
2021/01/08 11:24:09;;;;;;;11.73;7.30;;;2.10;99.90;;;;;;5091064;28;20546;-66
2021/01/08 11:26:35;;;;;;;11.77;7.65;;;2.10;99.90;;;;;;5090502;28;20055;-65
2021/01/08 11:29:02;;;;;;;12.95;7.47;;;2.10;99.90;;;;;;5090210;28;20050;-65
2021/01/08 11:31:33;;;;;;;11.48;7.20;;;2.10;99.90;;;;;;5087638;28;20050;-66
2021/01/08 11:34:01;;;;;;;11.70;7.50;;;2.10;99.90;;;;;;5104422;28;20547;-66
2021/01/08 11:36:28;;;;;;;11.70;7.38;;;2.20;99.90;;;;;;5088774;28;20043;-67
2021/01/08 11:38:55;;;;;;;13.68;7.78;;;2.20;99.90;;;;;;5091808;28;20091;-65
2021/01/08 11:41:22;;;;;;;11.07;7.15;;;2.20;99.90;;;;;;5091142;28;20056;-67
2021/01/08 11:43:49;;;;;;;11.35;7.20;;;2.20;99.90;;;;;;5088401;28;20062;-68
2021/01/08 11:46:20;;;;;;;11.68;7.25;;;2.30;99.90;;;;;;5089245;28;20048;-68
2021/01/08 11:48:51;;;;;;;13.07;8.00;;;2.40;99.90;;;;;;5069099;28;20130;-66
2021/01/08 11:51:24;;;;;;;10.77;7.40;;;2.50;99.90;;;;;;5089305;28;20055;-67
2021/01/08 11:53:54;;;;;;;11.88;8.10;;;2.50;99.90;;;;;;5089143;28;20316;-66
2021/01/08 11:56:28;;;;;;;11.80;7.47;;;2.40;99.90;;;;;;5072356;28;20043;-66
2021/01/08 11:58:55;;;;;;;13.75;7.85;;;2.30;99.90;;;;;;5087286;28;20454;-68
2021/01/08 12:01:27;;;;;;;13.68;8.70;;;2.20;99.90;;;;;;5088704;28;20040;-68
2021/01/08 12:03:55;;;;;;;15.60;8.43;;;2.00;99.90;;;;;;5085235;28;20052;-67
2021/01/08 12:06:33;;;;;;;12.23;8.02;;;1.90;99.90;;;;;;5075509;28;20048;-66
2021/01/08 12:09:00;;;;;;;11.63;7.20;;;1.90;99.90;;;;;;5072114;28;20429;-69
2021/01/08 12:11:28;;;;;;;11.07;7.60;;;1.80;99.90;;;;;;5089557;28;20040;-67
2021/01/08 12:13:55;;;;;;;13.48;8.45;;;1.80;99.90;;;;;;5079420;28;20055;-67
2021/01/08 12:16:28;;;;;;;14.10;8.38;;;1.70;99.90;;;;;;5087276;28;20047;-67
2021/01/08 12:18:55;;;;;;;12.15;8.18;;;1.70;99.90;;;;;;5085087;28;20047;-67
2021/01/08 12:21:22;;;;;;;13.40;7.93;;;1.70;99.90;;;;;;5090006;28;20149;-68
2021/01/08 12:23:57;;;;;;;12.48;8.23;;;1.70;99.90;;;;;;5090968;28;20056;-67
2021/01/08 12:26:24;;;;;;;17.75;9.00;;;1.70;99.90;;;;;;5090066;28;20056;-67
2021/01/08 12:28:51;;;;;;;12.77;8.90;;;1.70;99.90;;;;;;5071408;28;20048;-67
2021/01/08 12:31:24;;;;;;;13.02;8.85;;;1.70;99.90;;;;;;5104450;28;20072;-67
2021/01/08 12:33:52;;;;;;;12.50;8.68;;;1.70;99.90;;;;;;5093055;28;20051;-68
2021/01/08 12:36:20;;;;;;;15.05;9.20;;;1.70;99.90;;;;;;5078501;28;20048;-67
2021/01/08 12:38:47;;;;;;;13.60;8.93;;;1.60;99.90;;;;;;5093613;28;20048;-68
2021/01/08 12:41:15;;;;;;;14.18;9.02;;;1.60;99.90;;;;;;5092223;28;20063;-68
2021/01/08 12:43:42;;;;;;;12.02;8.10;;;1.60;99.90;;;;;;5075598;28;20105;-67
2021/01/08 12:46:08;;;;;;;13.25;8.85;;;1.60;99.90;;;;;;5094156;28;20048;-67
2021/01/08 12:48:36;;;;;;;18.30;9.57;;;1.70;99.90;;;;;;5065310;28;20537;-67
2021/01/08 12:51:03;;;;;;;12.55;8.85;;;1.70;99.90;;;;;;5079293;28;20483;-67
2021/01/08 12:53:30;;;;;;;13.32;8.98;;;1.80;99.90;;;;;;5092146;28;20391;-70
2021/01/08 12:55:56;;;;;;;13.65;8.98;;;1.80;99.90;;;;;;5091714;28;20130;-69